Pagrindinis puslapis
METAR-TAF:

METAR-TAF

Oro uostai :

Kvala Lumpūro tarptautinis oro uostas

Kvala Lumpūras, Malaizija

platuma: 02-44N, ilguma: 101-42E, Aukštis: 21 m

Dabartinis oras

Ataskaita buvo paskelbta 54 minutes, ne 22:30 UTC
Vėjas 4 kt iš Rytų, svyruoja nuo Šiaurės/Šiaurės Rytų ir Rytų/Pietryčių
Temperatūra 26°C
Drėgmė 79%
Slėgis 1013 hPa
Matomumas 10 km arba daugiau
Mažai debesys ne aukštis 3000 ft

METAR: WMKK 212230Z 08004KT 020V120 9999 FEW030 26/22 Q1013 NOSIG

Laikas: 07:24 (23:24 UTC)

Prognozė

Ataskaita buvo paskelbta 6 valandos ir 24 minutes, ne 17:00 UTC
Prognozė galioja nuo 21 metu 18 UTC su 23 metu 00 UTC
Vėjas 8 kt iš Rytų/Šiaurės Rytų
Matomumas 10 km arba daugiau
Mažai debesys ne aukštis 1800 ft

TAF: WMKK 211700Z 2118/2300 06008KT 9999 FEW018

Orai ataskaitas ir orų prognozės (METAR, TAF).

turimą stotys yra geltonos ir raudonos taškus žemėlapyje.

Perkelti pele per norėdami pamatyti stoties vardą.

Tada spustelėkite, norėdami matyti oro stebėjimo ir prognozės.

Norėdami pakeisti žemėlapį: spustelėkite ant žalios mygtukų su juodo kryžiaus žemyn,; žalią mygtuką su brūkšneliu, jei norite nutolinti; arba žalių rodyklių gretimoms žemėlapius.


METAR-TAF: